TAF KASN
KASN 081720Z 0818/0918 32006KT P6SM OVC010 FM081900 32005KT P6SM SKC FM091000 VRB03KT P6SM BKN250=
METAR KASN
WC KASN
WS KASN
WV KASN